Time;durP1;ratioP1;P1;durP2;ratioP2;P2;SDS_P1;SDS_P2;PMS_P1;PMS_P2;Temp;Humidity;BMP_temperature;BMP_pressure;BME280_temperature;BME280_humidity;BME280_pressure;Samples;Min_cycle;Max_cycle;Signal;HPM_P1;HPM_P2
2022/01/08 00:01:57;;;;;;;3.30;2.23;;;;;;;13.74;35.98;101087.53;5132713;27;20032;-69
2022/01/08 00:04:22;;;;;;;10.43;2.00;;;;;;;13.57;36.32;101089.59;5112643;27;20042;-69
2022/01/08 00:06:48;;;;;;;5.63;2.10;;;;;;;13.44;35.80;101093.38;5110052;27;20031;-69
2022/01/08 00:09:13;;;;;;;5.67;1.70;;;;;;;13.72;36.03;101089.34;5105892;27;20037;-69
2022/01/08 00:11:42;;;;;;;7.00;1.97;;;;;;;13.49;36.91;101091.50;5131824;27;20031;-69
2022/01/08 00:14:09;;;;;;;6.40;1.73;;;;;;;13.46;36.54;101091.56;5132251;27;20291;-70
2022/01/08 00:16:37;;;;;;;5.20;1.83;;;;;;;13.55;36.36;101096.66;5111752;27;20525;-69
2022/01/08 00:19:03;;;;;;;8.47;1.80;;;;;;;13.43;36.47;101096.88;5103780;27;20069;-69
2022/01/08 00:21:28;;;;;;;8.50;1.80;;;;;;;13.44;36.43;101091.59;5132410;27;20050;-69
2022/01/08 00:23:54;;;;;;;7.90;1.70;;;;;;;13.48;36.54;101100.28;5112297;27;20019;-69
2022/01/08 00:26:19;;;;;;;7.73;1.60;;;;;;;13.51;36.58;101094.97;5093403;28;20027;-69
2022/01/08 00:28:44;;;;;;;9.00;1.50;;;;;;;13.26;36.48;101094.50;5100563;27;20110;-69
2022/01/08 00:31:10;;;;;;;3.33;1.53;;;;;;;13.13;37.12;101099.09;5112451;27;20057;-69
2022/01/08 00:33:39;;;;;;;5.17;1.50;;;;;;;13.40;36.32;101101.28;5131915;27;20030;-69
2022/01/08 00:36:05;;;;;;;2.27;1.43;;;;;;;13.50;36.16;101103.75;5113262;27;20066;-69
2022/01/08 00:38:31;;;;;;;3.57;1.60;;;;;;;13.33;36.79;101104.88;5111315;27;20115;-69
2022/01/08 00:40:56;;;;;;;5.80;1.67;;;;;;;13.03;37.03;101098.38;5107458;27;20120;-69
2022/01/08 00:43:21;;;;;;;6.83;1.40;;;;;;;13.09;36.82;101102.66;5096307;27;20440;-69
2022/01/08 00:45:47;;;;;;;6.77;2.37;;;;;;;13.48;36.42;101100.28;5110933;28;20078;-69
2022/01/08 00:48:13;;;;;;;10.17;1.57;;;;;;;13.31;36.76;101088.28;5095689;27;20080;-69
2022/01/08 00:50:38;;;;;;;5.53;1.50;;;;;;;13.10;36.94;101083.41;5114555;27;20031;-69
2022/01/08 00:53:04;;;;;;;5.63;1.57;;;;;;;13.07;36.80;101093.03;5130003;27;20023;-70
2022/01/08 00:55:29;;;;;;;5.40;1.60;;;;;;;13.37;36.42;101082.94;5131845;27;20023;-69
2022/01/08 00:57:54;;;;;;;11.53;2.30;;;;;;;13.28;36.71;101088.31;5113072;27;20035;-69
2022/01/08 01:00:20;;;;;;;6.87;1.97;;;;;;;13.37;36.12;101090.81;5110839;27;20042;-70
2022/01/08 01:02:45;;;;;;;5.07;1.30;;;;;;;13.26;36.32;101090.13;5093152;28;20023;-69
2022/01/08 01:05:11;;;;;;;3.97;1.83;;;;;;;13.31;36.39;101088.28;5108903;27;20019;-69
2022/01/08 01:07:37;;;;;;;5.93;1.60;;;;;;;13.14;36.41;101090.34;5111890;27;20506;-69
2022/01/08 01:10:04;;;;;;;4.60;1.83;;;;;;;13.00;36.51;101096.66;5100678;28;20028;-70
2022/01/08 01:12:30;;;;;;;5.47;1.40;;;;;;;12.98;36.76;101102.81;5108838;27;20031;-69
2022/01/08 01:14:55;;;;;;;11.30;1.50;;;;;;;13.20;36.36;101112.09;5130893;27;20079;-69
2022/01/08 01:17:20;;;;;;;9.93;1.90;;;;;;;13.33;36.28;101110.13;5111546;27;20022;-69
2022/01/08 01:19:47;;;;;;;7.10;1.60;;;;;;;13.33;35.68;101099.63;5110455;27;20055;-69
2022/01/08 01:22:16;;;;;;;6.77;1.20;;;;;;;13.51;36.06;101105.47;5111985;27;20375;-69
2022/01/08 01:24:42;;;;;;;6.50;1.20;;;;;;;13.48;35.62;101105.53;5112357;27;20045;-69
2022/01/08 01:49:13;;;;;;;4.00;1.03;;;;;;;12.77;37.43;101117.13;5123107;27;20401;-69
2022/01/08 01:51:38;;;;;;;6.93;1.17;;;;;;;13.07;36.72;101111.41;5130756;28;20472;-69
2022/01/08 01:54:04;;;;;;;3.00;1.30;;;;;;;12.55;37.30;101125.31;5129559;28;20018;-69
2022/01/08 01:56:29;;;;;;;6.10;1.50;;;;;;;12.95;36.95;101129.97;5110917;28;20030;-69
2022/01/08 01:58:55;;;;;;;7.10;1.37;;;;;;;13.13;36.14;101130.59;5111856;28;20533;-70
2022/01/08 02:01:20;;;;;;;5.87;1.20;;;;;;;13.39;36.12;101130.19;5111881;28;20042;-69
2022/01/08 02:03:46;;;;;;;6.73;1.47;;;;;;;12.71;37.15;101139.94;5111825;28;20015;-69
2022/01/08 02:06:11;;;;;;;7.83;1.73;;;;;;;12.70;37.42;101138.19;5107577;28;20405;-69
2022/01/08 02:08:41;;;;;;;8.10;1.77;;;;;;;12.01;38.76;101137.31;5111784;28;20016;-69
2022/01/08 02:11:07;;;;;;;6.03;1.40;;;;;;;12.51;38.48;101141.97;5128959;28;20528;-69
2022/01/08 02:13:34;;;;;;;3.97;1.33;;;;;;;12.30;38.92;101137.88;5110367;28;20074;-69
2022/01/08 02:16:01;;;;;;;6.20;1.27;;;;;;;12.63;38.95;101131.31;5111202;28;20514;-69
2022/01/08 02:18:27;;;;;;;6.07;1.20;;;;;;;12.88;37.58;101126.56;5111804;28;20109;-69
2022/01/08 02:20:58;;;;;;;4.60;1.37;;;;;;;13.28;37.65;101135.56;5111631;28;20046;-69
2022/01/08 02:23:24;;;;;;;5.20;1.53;;;;;;;13.55;36.78;101133.41;5110601;28;20067;-69
2022/01/08 02:25:50;;;;;;;4.37;1.13;;;;;;;13.47;36.96;101136.16;5129352;28;20033;-69
2022/01/08 02:28:17;;;;;;;4.47;1.13;;;;;;;13.38;37.02;101131.94;5113104;27;20019;-69
2022/01/08 02:30:43;;;;;;;8.73;2.23;;;;;;;12.60;38.34;101130.47;5114107;27;20092;-69
2022/01/08 02:33:08;;;;;;;2.57;1.10;;;;;;;13.37;37.46;101124.97;5134144;27;20039;-69
2022/01/08 02:35:34;;;;;;;5.67;1.47;;;;;;;13.51;37.35;101127.34;5132810;27;20035;-69
2022/01/08 02:38:00;;;;;;;4.73;1.33;;;;;;;13.63;36.83;101123.66;5094621;28;20023;-69
2022/01/08 02:40:26;;;;;;;3.90;1.20;;;;;;;13.70;36.97;101117.38;5128493;27;20034;-69
2022/01/08 02:42:59;;;;;;;6.77;1.30;;;;;;;13.77;36.60;101122.53;5103236;28;20051;-69
2022/01/08 02:45:26;;;;;;;7.43;1.30;;;;;;;13.91;36.14;101123.13;5112694;27;20027;-69
2022/01/08 02:47:52;;;;;;;3.43;1.03;;;;;;;13.60;36.38;101121.09;5115577;27;20023;-69
2022/01/08 02:50:18;;;;;;;4.60;1.40;;;;;;;13.65;36.24;101124.47;5114678;27;20035;-69
2022/01/08 02:52:44;;;;;;;10.53;2.07;;;;;;;13.62;36.47;101124.53;5096250;28;20383;-69
2022/01/08 02:55:12;;;;;;;6.00;1.30;;;;;;;13.87;36.01;101130.19;5106203;27;20031;-69
2022/01/08 02:57:38;;;;;;;6.20;1.20;;;;;;;13.69;35.72;101120.88;5133279;27;20035;-69
2022/01/08 03:00:06;;;;;;;4.03;1.27;;;;;;;13.60;35.76;101115.84;5132652;27;20034;-69
2022/01/08 03:02:32;;;;;;;4.67;1.40;;;;;;;13.38;36.39;101120.56;5129787;27;20027;-69
2022/01/08 03:04:57;;;;;;;5.57;1.23;;;;;;;13.07;37.09;101121.91;5133333;27;20031;-69
2022/01/08 03:07:22;;;;;;;6.80;1.30;;;;;;;13.05;37.55;101123.72;5133152;27;20088;-69
2022/01/08 03:09:56;;;;;;;6.83;1.13;;;;;;;13.05;37.67;101118.47;5115054;27;20484;-69
2022/01/08 03:12:26;;;;;;;5.27;0.93;;;;;;;12.37;38.89;101121.16;5119320;27;20278;-69
2022/01/08 03:14:51;;;;;;;7.00;1.40;;;;;;;12.82;38.01;101125.81;5115313;27;20039;-69
2022/01/08 03:17:17;;;;;;;5.33;1.30;;;;;;;12.94;37.53;101116.88;5133290;27;20071;-69
2022/01/08 03:19:42;;;;;;;6.53;1.50;;;;;;;13.02;37.99;101115.88;5114281;27;20055;-69
2022/01/08 03:22:07;;;;;;;3.90;1.10;;;;;;;13.22;37.13;101114.69;5126104;27;20031;-68
2022/01/08 03:24:33;;;;;;;10.93;1.00;;;;;;;13.67;36.04;101117.44;5133000;27;20031;-69
2022/01/08 03:26:58;;;;;;;3.57;1.10;;;;;;;13.41;36.73;101117.91;5114189;27;20034;-69
2022/01/08 03:29:26;;;;;;;4.97;0.90;;;;;;;13.04;37.43;101119.34;5114837;27;20109;-69
2022/01/08 03:31:51;;;;;;;4.60;0.93;;;;;;;13.13;37.76;101125.34;5129835;27;20023;-69
2022/01/08 03:34:16;;;;;;;3.50;1.23;;;;;;;13.00;37.83;101119.41;5114322;27;20110;-69
2022/01/08 03:36:42;;;;;;;3.87;1.00;;;;;;;12.41;38.92;101135.13;5114431;27;20031;-69
2022/01/08 03:39:07;;;;;;;3.97;1.00;;;;;;;12.81;38.14;101122.31;5132176;27;20091;-69
2022/01/08 03:41:33;;;;;;;6.63;1.10;;;;;;;12.86;38.13;101122.25;5131341;27;20030;-69
2022/01/08 03:43:58;;;;;;;5.67;0.93;;;;;;;13.22;36.65;101120.78;5133135;27;20039;-69
2022/01/08 03:46:27;;;;;;;1.00;0.87;;;;;;;13.72;36.47;101114.72;5110131;27;20428;-69
2022/01/08 03:51:27;;;;;;;2.53;0.90;;;;;;;13.94;35.91;101125.69;5129570;27;20043;-69
2022/01/08 03:53:52;;;;;;;6.60;1.63;;;;;;;14.02;35.40;101122.91;5114147;27;20031;-69
2022/01/08 03:56:18;;;;;;;5.60;0.90;;;;;;;13.39;36.55;101111.81;5108008;27;20023;-69
2022/01/08 03:58:43;;;;;;;1.37;1.03;;;;;;;13.60;36.57;101113.19;5114464;27;20077;-69
2022/01/08 04:01:09;;;;;;;3.03;0.93;;;;;;;13.35;37.19;101111.00;5112930;27;20023;-69
2022/01/08 04:03:34;;;;;;;3.13;0.97;;;;;;;13.25;37.26;101119.88;5113910;27;20072;-69
2022/01/08 04:05:59;;;;;;;1.23;0.67;;;;;;;13.83;36.11;101117.16;5106445;27;20031;-69
2022/01/08 04:08:25;;;;;;;4.67;0.87;;;;;;;13.56;36.15;101109.75;5131863;27;20098;-69
2022/01/08 04:10:50;;;;;;;10.00;1.77;;;;;;;13.61;36.68;101108.81;5113091;27;20023;-69
2022/01/08 04:13:21;;;;;;;3.03;1.00;;;;;;;13.87;36.09;101124.94;5113997;27;20432;-69
2022/01/08 04:15:50;;;;;;;7.27;1.00;;;;;;;13.68;36.37;101119.19;5124170;27;20047;-69
2022/01/08 04:18:15;;;;;;;4.93;2.13;;;;;;;13.82;35.33;101124.19;5131852;27;20029;-69
2022/01/08 04:23:27;;;;;;;5.93;1.10;;;;;;;13.62;36.03;101124.53;5111339;28;20100;-69
2022/01/08 04:25:53;;;;;;;4.17;1.37;;;;;;;13.39;36.52;101133.69;5106755;27;20035;-69
2022/01/08 04:28:18;;;;;;;8.27;1.07;;;;;;;13.59;35.57;101135.09;5113544;27;20359;-69
2022/01/08 04:30:45;;;;;;;9.27;1.00;;;;;;;13.61;35.76;101133.28;5112780;27;20118;-69
2022/01/08 04:33:10;;;;;;;5.10;0.90;;;;;;;13.48;36.20;101137.91;5112423;27;20042;-69
2022/01/08 04:35:36;;;;;;;3.10;1.10;;;;;;;13.10;36.77;101138.50;5113704;27;20031;-69
2022/01/08 04:38:02;;;;;;;4.23;1.63;;;;;;;12.24;38.63;101149.31;5131294;27;20034;-69
2022/01/08 04:40:28;;;;;;;11.47;1.17;;;;;;;12.85;37.78;101154.63;5130869;27;20066;-69
2022/01/08 04:42:53;;;;;;;5.43;1.30;;;;;;;12.90;37.76;101150.19;5130394;27;20439;-69
2022/01/08 04:45:21;;;;;;;3.90;1.20;;;;;;;12.82;37.63;101162.53;5131235;27;20019;-69
2022/01/08 04:47:46;;;;;;;3.27;1.07;;;;;;;12.72;38.52;101161.78;5113109;27;20080;-69
2022/01/08 04:50:12;;;;;;;8.40;1.40;;;;;;;12.78;38.04;101160.84;5131060;27;20023;-69
2022/01/08 04:52:38;;;;;;;4.63;1.27;;;;;;;12.92;38.45;101153.63;5130416;27;20087;-69
2022/01/08 04:55:04;;;;;;;11.20;1.40;;;;;;;12.77;37.61;101159.09;5105089;27;20031;-69
2022/01/08 04:57:29;;;;;;;3.87;1.27;;;;;;;12.21;38.64;101163.31;5130143;27;20535;-69
2022/01/08 04:59:55;;;;;;;6.13;1.13;;;;;;;12.76;38.47;101167.84;5131399;27;20164;-69
2022/01/08 05:02:20;;;;;;;4.37;1.70;;;;;;;13.13;37.60;101162.94;5112275;27;20051;-69
2022/01/08 05:04:45;;;;;;;5.53;1.47;;;;;;;12.97;37.11;101157.06;5119669;27;20463;-69
2022/01/08 05:07:11;;;;;;;23.77;2.07;;;;;;;13.67;36.37;101148.97;5130718;27;20469;-69
2022/01/08 05:09:36;;;;;;;6.77;1.23;;;;;;;13.43;36.63;101155.50;5112975;27;20031;-69
2022/01/08 05:12:01;;;;;;;4.77;1.67;;;;;;;13.52;36.71;101151.88;5111624;27;20026;-69
2022/01/08 05:14:27;;;;;;;6.57;1.30;;;;;;;12.99;37.27;101157.03;5110622;27;20461;-69
2022/01/08 05:16:58;;;;;;;4.17;1.27;;;;;;;13.29;36.98;101153.06;5130962;27;20075;-69
2022/01/08 05:19:36;;;;;;;4.33;1.60;;;;;;;13.33;37.22;101154.75;5111774;27;20043;-69
2022/01/08 05:22:05;;;;;;;2.43;1.30;;;;;;;12.71;38.40;101150.44;5130571;27;20076;-69
2022/01/08 05:24:30;;;;;;;4.67;1.40;;;;;;;13.12;37.28;101139.34;5127947;27;20110;-69
2022/01/08 05:26:55;;;;;;;7.73;1.40;;;;;;;12.90;37.59;101144.94;5097934;27;20134;-69
2022/01/08 05:29:21;;;;;;;4.97;1.20;;;;;;;13.16;37.10;101156.78;5112007;27;20030;-69
2022/01/08 05:31:48;;;;;;;9.40;1.57;;;;;;;12.98;37.32;101163.16;5130766;27;20055;-69
2022/01/08 05:34:13;;;;;;;4.40;1.50;;;;;;;13.57;36.69;101163.13;5111215;27;20118;-69
2022/01/08 05:36:39;;;;;;;11.03;2.00;;;;;;;13.46;37.10;101172.97;5115013;27;20434;-69
2022/01/08 05:39:04;;;;;;;4.03;1.13;;;;;;;13.63;36.66;101178.81;5130630;27;20110;-69
2022/01/08 05:41:30;;;;;;;2.20;1.20;;;;;;;13.62;36.42;101170.94;5129924;27;20015;-69
2022/01/08 05:43:55;;;;;;;7.47;1.70;;;;;;;13.69;36.67;101177.81;5130944;27;20031;-69
2022/01/08 05:46:21;;;;;;;6.10;1.40;;;;;;;13.71;36.82;101176.91;5129330;27;20115;-69
2022/01/08 05:48:46;;;;;;;4.60;1.23;;;;;;;13.20;37.89;101168.94;5112029;28;20071;-69
2022/01/08 05:51:11;;;;;;;9.87;1.93;;;;;;;13.44;37.03;101174.75;5129107;27;20053;-69
2022/01/08 05:53:37;;;;;;;7.60;1.90;;;;;;;14.29;36.09;101174.09;5130701;28;20569;-69
2022/01/08 05:56:02;;;;;;;5.93;1.70;;;;;;;14.26;35.91;101168.91;5111258;28;20031;-69
2022/01/08 05:58:28;;;;;;;5.20;1.57;;;;;;;13.66;37.27;101168.25;5129397;28;20031;-69
2022/01/08 06:00:53;;;;;;;4.13;2.03;;;;;;;14.40;36.14;101166.84;5111434;28;20359;-69
2022/01/08 06:03:19;;;;;;;3.50;1.40;;;;;;;14.34;36.10;101174.88;5113466;27;20114;-69
2022/01/08 06:05:45;;;;;;;4.47;2.50;;;;;;;14.50;35.76;101171.91;5115950;27;20118;-69
2022/01/08 06:08:10;;;;;;;7.67;2.17;;;;;;;14.05;36.37;101160.53;5120070;27;20110;-69
2022/01/08 06:10:35;;;;;;;8.33;2.23;;;;;;;14.56;35.87;101155.97;5118013;27;20035;-69
2022/01/08 06:13:01;;;;;;;3.30;1.73;;;;;;;14.36;35.91;101159.91;5120464;27;20047;-69
2022/01/08 06:15:26;;;;;;;4.00;2.17;;;;;;;14.63;35.49;101157.63;5114427;27;20019;-69
2022/01/08 06:17:52;;;;;;;5.10;2.33;;;;;;;14.41;35.72;101152.78;5105294;28;20151;-69
2022/01/08 06:20:17;;;;;;;10.30;2.10;;;;;;;13.84;36.55;101155.66;5099972;27;20047;-69
2022/01/08 06:22:42;;;;;;;5.50;1.90;;;;;;;13.94;36.29;101151.97;5113796;27;20027;-69
2022/01/08 06:25:08;;;;;;;6.37;2.00;;;;;;;13.95;36.31;101151.06;5115444;27;20129;-69
2022/01/08 06:27:33;;;;;;;5.73;1.80;;;;;;;14.27;35.98;101154.81;5115218;27;20051;-69
2022/01/08 06:29:58;;;;;;;6.97;2.20;;;;;;;13.96;36.45;101149.31;5115142;27;20034;-69
2022/01/08 06:32:24;;;;;;;6.37;2.00;;;;;;;13.91;36.13;101141.50;5115369;27;20395;-69
2022/01/08 06:34:49;;;;;;;5.73;1.90;;;;;;;13.48;36.72;101142.31;5115001;27;20382;-69
2022/01/08 06:37:15;;;;;;;4.90;1.70;;;;;;;13.92;35.79;101143.25;5114661;27;20430;-69
2022/01/08 06:39:40;;;;;;;6.27;2.27;;;;;;;13.39;37.41;101140.69;5115552;27;20041;-69
2022/01/08 06:42:05;;;;;;;6.77;2.10;;;;;;;13.22;37.82;101140.94;5133381;27;20072;-69
2022/01/08 06:44:31;;;;;;;4.03;2.07;;;;;;;13.09;38.31;101144.63;5113789;27;20039;-69
2022/01/08 06:46:57;;;;;;;7.63;1.93;;;;;;;13.26;37.71;101142.63;5133902;27;20038;-69
2022/01/08 06:49:22;;;;;;;9.30;1.87;;;;;;;13.03;38.53;101138.59;5112064;27;20030;-69
2022/01/08 06:51:47;;;;;;;5.37;1.60;;;;;;;13.16;37.95;101141.91;5112804;28;20023;-69
2022/01/08 06:54:13;;;;;;;6.10;1.33;;;;;;;12.53;39.42;101134.97;5109690;27;20031;-69
2022/01/08 06:56:38;;;;;;;4.43;1.63;;;;;;;12.03;40.42;101140.81;5101794;28;20600;-69
2022/01/08 06:59:04;;;;;;;2.83;1.53;;;;;;;11.35;41.83;101136.19;5099343;27;20023;-69
2022/01/08 07:01:29;;;;;;;6.00;1.90;;;;;;;11.74;41.23;101137.59;5114800;27;20123;-69
2022/01/08 07:03:55;;;;;;;11.80;1.80;;;;;;;11.91;41.18;101140.91;5114824;27;20023;-69
2022/01/08 07:06:21;;;;;;;5.00;1.57;;;;;;;12.13;40.54;101138.06;5113717;27;20102;-69
2022/01/08 07:08:46;;;;;;;4.03;1.73;;;;;;;12.25;40.54;101135.28;5109943;27;20020;-69
2022/01/08 07:11:12;;;;;;;9.83;1.90;;;;;;;11.87;41.02;101139.19;5113164;27;20027;-69
2022/01/08 07:13:37;;;;;;;8.60;1.70;;;;;;;12.55;40.68;101133.16;5106540;27;20056;-69
2022/01/08 07:16:03;;;;;;;3.57;1.50;;;;;;;11.95;41.59;101137.41;5114843;27;20458;-69
2022/01/08 07:18:28;;;;;;;6.33;1.70;;;;;;;11.36;42.71;101140.53;5110649;27;20027;-69
2022/01/08 07:20:54;;;;;;;6.53;1.90;;;;;;;11.56;42.63;101133.41;5132907;27;20406;-69
2022/01/08 07:23:20;;;;;;;7.53;1.80;;;;;;;12.05;41.26;101130.31;5096075;27;20355;-70
2022/01/08 07:25:46;;;;;;;4.80;1.60;;;;;;;11.58;42.39;101126.38;5097904;27;20161;-69
2022/01/08 07:28:12;;;;;;;5.37;1.70;;;;;;;12.35;41.28;101126.44;5114560;27;20525;-69
2022/01/08 07:30:37;;;;;;;3.77;1.70;;;;;;;11.87;41.75;101129.56;5132836;27;20046;-69
2022/01/08 07:33:02;;;;;;;3.93;1.87;;;;;;;11.63;43.51;101119.34;5097256;28;20048;-69
2022/01/08 07:35:28;;;;;;;5.77;1.87;;;;;;;12.28;41.37;101122.16;5113121;27;20030;-69
2022/01/08 07:37:53;;;;;;;3.77;1.33;;;;;;;11.00;43.87;101126.88;5114379;27;20114;-69
2022/01/08 07:40:20;;;;;;;10.27;2.03;;;;;;;11.28;44.19;101118.78;5113070;27;20101;-70
2022/01/08 07:42:46;;;;;;;10.03;2.60;;;;;;;11.44;42.89;101108.19;5113875;27;20047;-69
2022/01/08 07:45:12;;;;;;;9.27;3.30;;;;;;;11.46;43.63;101111.66;5113071;27;20525;-69
2022/01/08 07:47:37;;;;;;;10.13;2.13;;;;;;;11.73;43.45;101110.50;5113455;27;20045;-70
2022/01/08 07:50:05;;;;;;;5.90;2.30;;;;;;;11.83;43.20;101111.31;5106384;27;20058;-69
2022/01/08 07:52:30;;;;;;;8.23;2.40;;;;;;;11.77;43.19;101108.72;5113379;27;20027;-69
2022/01/08 07:54:55;;;;;;;4.47;2.60;;;;;;;11.24;44.34;101113.56;5131722;27;20031;-69
2022/01/08 07:57:21;;;;;;;8.40;2.47;;;;;;;11.58;43.98;101111.56;5113909;27;20023;-69
2022/01/08 07:59:46;;;;;;;12.27;2.53;;;;;;;11.70;42.89;101116.66;5114094;27;20043;-69
2022/01/08 08:02:11;;;;;;;8.57;4.07;;;;;;;10.63;46.68;101114.03;5131951;27;20069;-69
2022/01/08 08:04:37;;;;;;;7.70;2.93;;;;;;;10.86;45.36;101110.38;5106125;27;20072;-69
2022/01/08 08:07:03;;;;;;;11.10;3.27;;;;;;;11.23;44.63;101104.03;5131266;27;20035;-69
2022/01/08 08:09:28;;;;;;;5.40;3.27;;;;;;;11.23;45.21;101094.41;5124915;27;20035;-69
2022/01/08 08:11:54;;;;;;;12.90;3.70;;;;;;;10.93;46.53;101091.16;5113927;27;20027;-69
2022/01/08 08:14:19;;;;;;;7.70;3.47;;;;;;;11.49;44.15;101085.47;5108046;27;20035;-69
2022/01/08 08:16:45;;;;;;;8.97;3.43;;;;;;;11.63;43.78;101088.78;5132269;27;20060;-69
2022/01/08 08:19:10;;;;;;;8.77;4.13;;;;;;;10.88;46.00;101085.09;5120614;27;20062;-69
2022/01/08 08:21:35;;;;;;;8.63;4.43;;;;;;;11.63;44.58;101083.56;5113011;27;20498;-69
2022/01/08 08:24:03;;;;;;;7.73;4.17;;;;;;;11.73;44.66;101078.22;5112119;27;20038;-69
2022/01/08 08:26:29;;;;;;;14.83;4.47;;;;;;;11.65;44.91;101081.81;5109433;27;20027;-69
2022/01/08 08:28:54;;;;;;;12.23;4.40;;;;;;;11.43;46.02;101075.91;5115225;27;20031;-69
2022/01/08 08:31:19;;;;;;;15.10;5.20;;;;;;;11.00;45.74;101077.16;5133551;27;20031;-69
2022/01/08 08:33:45;;;;;;;10.70;3.93;;;;;;;11.38;45.33;101082.94;5131714;27;20027;-69
2022/01/08 08:36:10;;;;;;;13.33;5.40;;;;;;;10.94;46.46;101066.72;5112625;27;20501;-69
2022/01/08 08:38:35;;;;;;;14.23;5.60;;;;;;;10.45;47.35;101072.28;5101093;28;20032;-69
2022/01/08 08:41:01;;;;;;;8.97;5.07;;;;;;;11.35;45.13;101065.50;5110233;27;20030;-69
2022/01/08 08:43:26;;;;;;;20.83;5.90;;;;;;;11.48;46.24;101057.53;5112137;27;20103;-69
2022/01/08 08:45:52;;;;;;;12.17;5.67;;;;;;;11.14;46.62;101052.63;5132000;27;20253;-69
2022/01/08 08:48:17;;;;;;;14.60;6.07;;;;;;;11.30;46.30;101050.75;5107582;27;20034;-69
2022/01/08 08:50:44;;;;;;;16.87;6.63;;;;;;;11.01;47.15;101042.25;5111859;27;20035;-69
2022/01/08 08:53:10;;;;;;;14.57;7.13;;;;;;;9.80;48.62;101055.13;5130460;27;20091;-69
2022/01/08 08:55:35;;;;;;;15.33;7.13;;;;;;;10.28;48.70;101048.84;5095632;28;20517;-69
2022/01/08 08:58:01;;;;;;;14.83;6.93;;;;;;;10.63;47.66;101046.06;5121324;27;20123;-69
2022/01/08 09:00:26;;;;;;;14.70;7.03;;;;;;;10.24;48.81;101047.97;5112413;27;20505;-69
2022/01/08 09:02:52;;;;;;;17.93;8.33;;;;;;;10.38;50.72;101034.03;5130309;27;20026;-69
2022/01/08 09:05:17;;;;;;;14.50;7.33;;;;;;;11.65;45.56;101029.44;5112198;27;20039;-69
2022/01/08 09:07:44;;;;;;;20.60;8.57;;;;;;;11.78;45.49;101029.28;5111364;27;20096;-69
2022/01/08 09:10:10;;;;;;;23.13;8.07;;;;;;;11.43;46.11;101027.91;5130934;27;20030;-69
2022/01/08 09:12:40;;;;;;;18.53;8.33;;;;;;;11.26;47.26;101020.25;5111052;27;20050;-69
2022/01/08 09:15:07;;;;;;;18.67;9.27;;;;;;;11.86;45.53;101023.06;5095258;28;20442;-69
2022/01/08 09:17:34;;;;;;;20.80;8.93;;;;;;;11.24;47.42;101008.91;5097343;27;20034;-69
2022/01/08 09:19:59;;;;;;;21.53;8.37;;;;;;;11.69;46.77;101004.94;5125700;27;20138;-69
2022/01/08 09:22:25;;;;;;;21.53;8.60;;;;;;;11.35;46.13;100999.22;5129665;27;20422;-69
2022/01/08 09:24:52;;;;;;;14.60;8.60;;;;;;;11.91;45.94;100988.09;5130243;27;20023;-69
2022/01/08 09:27:17;;;;;;;20.20;10.00;;;;;;;11.34;46.65;100992.25;5111727;27;20031;-69
2022/01/08 09:29:42;;;;;;;26.50;9.33;;;;;;;12.51;44.97;100984.66;5099599;27;20114;-69
2022/01/08 09:32:08;;;;;;;16.30;8.50;;;;;;;11.25;47.63;100988.00;5125260;27;20038;-69
2022/01/08 09:34:36;;;;;;;20.80;8.03;;;;;;;11.70;45.74;100970.03;5122470;27;20023;-69
2022/01/08 09:37:03;;;;;;;16.77;8.53;;;;;;;11.53;46.40;100971.97;5112122;27;20026;-69
2022/01/08 09:39:29;;;;;;;19.70;7.90;;;;;;;11.53;46.69;100972.84;5129162;27;20107;-69
2022/01/08 09:41:55;;;;;;;17.27;9.07;;;;;;;12.06;45.48;100961.72;5101594;27;20113;-69
2022/01/08 09:44:20;;;;;;;20.37;9.73;;;;;;;11.18;46.79;100960.13;5125287;27;20023;-68
2022/01/08 09:46:46;;;;;;;16.27;8.10;;;;;;;11.68;46.57;100956.06;5128714;27;20033;-69
2022/01/08 09:49:11;;;;;;;17.77;9.53;;;;;;;11.27;46.53;100943.50;5123092;27;20058;-68
2022/01/08 09:51:37;;;;;;;16.00;8.73;;;;;;;12.05;45.27;100937.28;5096096;28;20041;-69
2022/01/08 09:54:03;;;;;;;18.40;8.37;;;;;;;11.79;46.48;100936.75;5126419;28;20035;-69
2022/01/08 09:56:31;;;;;;;17.37;7.73;;;;;;;11.23;47.83;100937.41;5112178;28;20038;-68
2022/01/08 09:58:57;;;;;;;17.80;7.83;;;;;;;11.61;46.77;100933.47;5120476;28;20016;-69
2022/01/08 10:01:25;;;;;;;18.80;8.33;;;;;;;11.77;46.96;100928.88;5109069;28;20039;-68
2022/01/08 10:03:52;;;;;;;16.77;7.67;;;;;;;11.45;46.75;100921.47;5125529;28;20062;-69
2022/01/08 10:06:25;;;;;;;20.57;7.83;;;;;;;12.63;44.34;100903.16;5111105;28;20031;-69
2022/01/08 10:08:51;;;;;;;16.23;7.90;;;;;;;11.56;47.10;100909.09;5109191;28;20389;-68
2022/01/08 10:11:18;;;;;;;18.27;8.13;;;;;;;11.65;45.62;100909.00;5112253;28;20402;-68
2022/01/08 10:13:45;;;;;;;20.63;8.40;;;;;;;11.76;46.02;100894.88;5112038;28;20401;-69
2022/01/08 10:19:01;;;;;;;17.50;7.30;;;;;;;11.53;46.38;100888.22;5110465;28;20411;-68
2022/01/08 10:21:37;;;;;;;13.67;7.03;;;;;;;11.75;46.11;100877.47;5090865;28;20035;-68
2022/01/08 10:24:08;;;;;;;20.23;7.57;;;;;;;12.28;45.22;100870.56;5106556;28;20062;-68
2022/01/08 10:26:39;;;;;;;16.77;6.87;;;;;;;12.47;45.01;100854.50;5091772;28;20395;-69
2022/01/08 10:29:10;;;;;;;15.20;7.40;;;;;;;12.39;45.22;100838.91;5090360;28;20034;-69
2022/01/08 10:31:46;;;;;;;17.93;8.03;;;;;;;12.01;45.24;100841.28;5109542;28;20023;-69
2022/01/08 10:34:14;;;;;;;12.17;6.37;;;;;;;11.92;47.13;100827.44;5102059;28;20031;-69
2022/01/08 10:36:41;;;;;;;16.30;6.13;;;;;;;12.26;44.82;100827.78;5091230;28;20540;-68
2022/01/08 10:39:12;;;;;;;13.07;6.10;;;;;;;12.14;44.85;100817.50;5129716;28;20043;-68
2022/01/08 10:41:40;;;;;;;14.87;6.33;;;;;;;12.51;45.50;100816.84;5106996;28;20380;-71
2022/01/08 10:44:13;;;;;;;17.57;5.83;;;;;;;12.37;45.10;100807.47;5105505;28;20027;-68
2022/01/08 10:46:44;;;;;;;16.70;5.50;;;;;;;12.62;44.25;100809.66;5121161;28;20072;-71
2022/01/08 10:49:09;;;;;;;11.90;5.73;;;;;;;11.63;45.86;100792.94;5111514;27;20125;-71
2022/01/08 10:51:37;;;;;;;11.27;4.57;;;;;;;12.04;45.12;100796.69;5114171;27;20031;-68
2022/01/08 10:54:16;;;;;;;10.03;4.00;;;;;;;13.19;43.02;100784.91;5105704;28;20023;-71
2022/01/08 10:56:44;;;;;;;13.77;3.97;;;;;;;13.00;42.92;100767.81;5094199;27;20047;-68
2022/01/08 10:59:21;;;;;;;8.07;3.83;;;;;;;12.32;44.12;100770.03;5132140;27;20042;-69
2022/01/08 11:01:57;;;;;;;8.33;4.23;;;;;;;13.48;43.36;100758.94;5100540;28;20103;-70
2022/01/08 11:04:40;;;;;;;7.77;3.70;;;;;;;12.68;45.11;100741.38;5102817;27;20027;-69
2022/01/08 11:07:07;;;;;;;;;;;;;;;13.84;42.25;100740.56;5110733;27;20037;-69
2022/01/08 11:09:36;;;;;;;9.60;3.47;;;;;;;12.79;43.53;100724.53;5115095;27;19946;-68
2022/01/08 11:12:03;;;;;;;7.80;3.33;;;;;;;11.96;44.36;100725.22;5113484;27;20027;-68
2022/01/08 11:17:19;;;;;;;9.13;4.00;;;;;;;14.31;40.37;100688.50;5130210;27;20106;-69
2022/01/08 11:19:51;;;;;;;13.10;4.50;;;;;;;14.21;40.99;100687.03;5132383;27;20043;-69
2022/01/08 11:22:20;;;;;;;6.80;4.00;;;;;;;13.57;41.30;100690.41;5114222;27;20084;-69
2022/01/08 11:24:55;;;;;;;6.50;4.07;;;;;;;13.79;41.53;100684.63;5114134;27;20056;-69
2022/01/08 11:27:28;;;;;;;7.93;4.17;;;;;;;14.26;40.44;100669.38;5110804;27;20030;-69
2022/01/08 11:30:03;;;;;;;6.37;3.23;;;;;;;12.89;43.54;100665.75;5114271;27;20390;-69
2022/01/08 11:32:29;;;;;;;8.60;3.30;;;;;;;12.64;43.90;100649.66;5112135;27;20031;-69
2022/01/08 11:34:55;;;;;;;9.17;3.40;;;;;;;12.86;43.30;100656.19;5131460;27;20019;-69
2022/01/08 11:37:24;;;;;;;8.50;3.77;;;;;;;12.41;44.47;100652.78;5109968;27;20111;-69
2022/01/08 11:39:51;;;;;;;8.53;3.47;;;;;;;12.78;44.74;100639.75;5113662;27;20152;-68
2022/01/08 11:42:21;;;;;;;6.80;3.67;;;;;;;12.42;44.88;100650.13;5132412;27;20031;-69
2022/01/08 11:44:49;;;;;;;10.90;3.90;;;;;;;12.38;44.89;100627.50;5105477;27;20027;-69
2022/01/08 11:47:17;;;;;;;10.20;2.93;;;;;;;11.80;46.91;100634.69;5129493;27;20023;-69
2022/01/08 11:49:43;;;;;;;5.37;3.10;;;;;;;12.45;44.56;100623.00;5132448;27;20098;-69
2022/01/08 11:52:22;;;;;;;10.60;2.97;;;;;;;12.54;46.12;100613.16;5131858;27;20160;-68
2022/01/08 11:54:50;;;;;;;4.63;2.40;;;;;;;12.05;46.35;100601.94;5127625;27;20023;-68